Time;durP1;ratioP1;P1;durP2;ratioP2;P2;SDS_P1;SDS_P2;PMS_P1;PMS_P2;Temp;Humidity;BMP_temperature;BMP_pressure;BME280_temperature;BME280_humidity;BME280_pressure;Samples;Min_cycle;Max_cycle;Signal;HPM_P1;HPM_P2
2022/12/16 00:01:48;;;;;;;30.42;15.40;;;;;;;;;;5064174;28;20035;-73
2022/12/16 00:04:16;;;;;;;27.57;15.17;;;;;;;;;;5062076;28;20158;-72
2022/12/16 00:06:41;;;;;;;30.92;15.20;;;;;;;;;;5066747;28;20380;-72
2022/12/16 00:09:06;;;;;;;27.40;14.30;;;;;;;;;;5068892;28;20112;-72
2022/12/16 00:11:32;;;;;;;28.03;14.50;;;;;;;;;;5059991;28;20060;-72
2022/12/16 00:13:57;;;;;;;25.98;14.32;;;;;;;;;;5057791;28;20059;-72
2022/12/16 00:16:22;;;;;;;27.43;14.37;;;;;;;;;;5070628;28;20088;-72
2022/12/16 00:18:48;;;;;;;27.50;14.70;;;;;;;;;;5068292;28;20090;-72
2022/12/16 00:21:13;;;;;;;28.35;14.75;;;;;;;;;;5065606;28;20025;-72
2022/12/16 00:23:40;;;;;;;26.45;14.30;;;;;;;;;;5051338;28;20085;-73
2022/12/16 00:26:05;;;;;;;27.30;14.32;;;;;;;;;;5065178;28;20390;-72
2022/12/16 00:28:31;;;;;;;26.83;14.13;;;;;;;;;;5068330;28;20035;-72
2022/12/16 00:30:56;;;;;;;25.40;13.80;;;;;;;;;;5046799;28;20025;-72
2022/12/16 00:33:22;;;;;;;25.05;14.15;;;;;;;;;;5067240;28;20777;-73
2022/12/16 00:35:48;;;;;;;25.50;13.30;;;;;;;;;;5065303;28;20028;-73
2022/12/16 00:38:14;;;;;;;23.60;13.65;;;;;;;;;;5046119;28;20475;-73
2022/12/16 00:40:39;;;;;;;28.00;13.75;;;;;;;;;;5071134;28;20064;-73
2022/12/16 00:43:04;;;;;;;28.10;14.80;;;;;;;;;;5068489;28;20037;-73
2022/12/16 00:45:29;;;;;;;25.47;14.57;;;;;;;;;;5065981;28;20763;-73
2022/12/16 00:47:55;;;;;;;26.52;14.30;;;;;;;;;;5065450;28;20032;-73
2022/12/16 00:50:20;;;;;;;27.77;14.88;;;;;;;;;;5052299;28;20437;-73
2022/12/16 00:52:46;;;;;;;27.55;14.07;;;;;;;;;;5068141;28;20047;-72
2022/12/16 00:55:12;;;;;;;26.92;14.30;;;;;;;;;;5069218;28;20024;-73
2022/12/16 00:57:37;;;;;;;26.92;14.25;;;;;;;;;;5064129;28;20087;-73
2022/12/16 01:00:04;;;;;;;23.60;13.13;;;;;;;;;;5065446;28;20024;-73
2022/12/16 01:02:29;;;;;;;26.52;14.38;;;;;;;;;;5061676;28;20039;-73
2022/12/16 01:04:54;;;;;;;25.85;13.52;;;;;;;;;;5070429;28;20020;-73
2022/12/16 01:07:20;;;;;;;24.08;14.43;;;;;;;;;;5043236;28;20044;-73
2022/12/16 01:09:45;;;;;;;26.70;13.43;;;;;;;;;;5069483;28;20115;-73
2022/12/16 01:12:10;;;;;;;24.50;13.50;;;;;;;;;;5048570;28;20045;-72
2022/12/16 01:14:35;;;;;;;24.13;14.10;;;;;;;;;;5049155;28;20031;-73
2022/12/16 01:17:01;;;;;;;26.70;13.67;;;;;;;;;;5066373;28;20275;-73
2022/12/16 01:19:26;;;;;;;26.60;13.17;;;;;;;;;;5061429;28;20335;-73
2022/12/16 01:21:51;;;;;;;25.43;13.73;;;;;;;;;;5067384;28;20115;-73
2022/12/16 01:24:16;;;;;;;25.03;13.43;;;;;;;;;;5052128;28;20028;-73
2022/12/16 01:26:41;;;;;;;26.90;13.83;;;;;;;;;;5047295;28;20522;-73
2022/12/16 01:29:07;;;;;;;26.30;12.93;;;;;;;;;;5064854;28;20367;-73
2022/12/16 01:31:32;;;;;;;30.33;14.30;;;;;;;;;;5041993;28;20124;-73
2022/12/16 01:33:57;;;;;;;25.03;13.67;;;;;;;;;;5067231;28;20077;-73
2022/12/16 01:36:23;;;;;;;28.37;14.50;;;;;;;;;;5062100;28;20028;-72
2022/12/16 01:38:48;;;;;;;24.55;13.27;;;;;;;;;;5062452;28;20454;-72
2022/12/16 01:41:14;;;;;;;25.70;13.60;;;;;;;;;;5045184;28;20375;-72
2022/12/16 01:43:40;;;;;;;25.00;13.80;;;;;;;;;;5043975;28;20067;-72
2022/12/16 01:46:14;;;;;;;25.60;13.93;;;;;;;;;;5067040;28;20020;-72
2022/12/16 01:48:49;;;;;;;25.30;13.77;;;;;;;;;;5063702;28;20421;-73
2022/12/16 01:51:18;;;;;;;27.35;14.23;;;;;;;;;;5051066;28;20025;-73
2022/12/16 01:53:44;;;;;;;29.02;14.35;;;;;;;;;;5063168;28;20035;-72
2022/12/16 01:56:10;;;;;;;27.23;14.13;;;;;;;;;;5064795;28;20056;-73
2022/12/16 01:58:38;;;;;;;27.50;14.55;;;;;;;;;;5047133;28;20175;-73
2022/12/16 02:01:03;;;;;;;27.77;14.45;;;;;;;;;;5043539;28;20082;-72
2022/12/16 02:03:30;;;;;;;26.52;13.95;;;;;;;;;;5050313;28;20099;-73
2022/12/16 02:05:58;;;;;;;28.48;14.88;;;;;;;;;;5044545;28;20039;-72
2022/12/16 02:08:23;;;;;;;25.95;14.32;;;;;;;;;;5045727;28;20110;-73
2022/12/16 02:10:58;;;;;;;26.75;14.32;;;;;;;;;;5046714;28;20049;-73
2022/12/16 02:13:42;;;;;;;24.55;13.23;;;;;;;;;;5036598;28;20101;-73
2022/12/16 02:16:13;;;;;;;24.85;12.70;;;;;;;;;;5043614;28;21537;-73
2022/12/16 02:18:39;;;;;;;22.42;12.88;;;;;;;;;;5045241;28;20028;-70
2022/12/16 02:21:26;;;;;;;25.80;13.57;;;;;;;;;;5048294;28;20033;-68
2022/12/16 02:24:18;;;;;;;26.65;12.88;;;;;;;;;;5042974;28;20112;-68
2022/12/16 02:26:55;;;;;;;24.83;13.50;;;;;;;;;;5045729;28;20025;-69
2022/12/16 02:29:27;;;;;;;23.48;12.68;;;;;;;;;;5050099;28;20391;-69
2022/12/16 02:31:58;;;;;;;23.15;12.50;;;;;;;;;;5040792;28;20169;-69
2022/12/16 02:34:35;;;;;;;22.95;12.00;;;;;;;;;;5043682;28;20023;-69
2022/12/16 02:37:10;;;;;;;25.63;12.65;;;;;;;;;;5044877;28;20495;-69
2022/12/16 02:39:42;;;;;;;22.48;11.70;;;;;;;;;;5041438;28;20483;-67
2022/12/16 02:42:18;;;;;;;22.73;12.18;;;;;;;;;;5040861;28;20529;-68
2022/12/16 02:44:51;;;;;;;22.27;12.30;;;;;;;;;;5043853;28;20043;-67
2022/12/16 02:47:16;;;;;;;21.45;12.23;;;;;;;;;;5042983;28;20032;-68
2022/12/16 02:49:41;;;;;;;23.57;12.37;;;;;;;;;;5047264;28;20548;-69
2022/12/16 02:52:06;;;;;;;19.13;11.00;;;;;;;;;;5040765;28;20402;-68
2022/12/16 02:54:32;;;;;;;18.80;10.90;;;;;;;;;;5042579;28;20091;-68
2022/12/16 02:57:03;;;;;;;20.50;10.33;;;;;;;;;;5046111;28;20277;-68
2022/12/16 02:59:48;;;;;;;19.55;10.52;;;;;;;;;;5059955;28;20048;-68
2022/12/16 03:02:14;;;;;;;21.63;10.80;;;;;;;;;;5047539;28;20032;-67
2022/12/16 03:04:42;;;;;;;22.07;11.10;;;;;;;;;;5062137;28;20106;-67
2022/12/16 03:07:11;;;;;;;22.17;11.40;;;;;;;;;;5060608;28;20078;-68
2022/12/16 03:09:37;;;;;;;22.77;11.90;;;;;;;;;;5051103;28;20466;-68
2022/12/16 03:12:04;;;;;;;21.60;11.38;;;;;;;;;;5051118;28;20082;-68
2022/12/16 03:14:31;;;;;;;22.00;11.50;;;;;;;;;;5066922;28;20027;-68
2022/12/16 03:16:57;;;;;;;17.80;10.57;;;;;;;;;;5064484;28;20035;-66
2022/12/16 03:19:23;;;;;;;18.63;10.65;;;;;;;;;;5047988;28;20024;-67
2022/12/16 03:22:10;;;;;;;19.08;9.77;;;;;;;;;;5049544;28;20032;-68
2022/12/16 03:24:36;;;;;;;21.90;11.70;;;;;;;;;;5052280;28;20505;-72
2022/12/16 03:27:14;;;;;;;20.15;10.73;;;;;;;;;;5067833;28;20056;-72
2022/12/16 03:29:39;;;;;;;19.17;10.45;;;;;;;;;;5046599;28;20028;-72
2022/12/16 03:32:10;;;;;;;19.10;9.83;;;;;;;;;;5064557;28;20379;-72
2022/12/16 03:34:38;;;;;;;20.92;11.30;;;;;;;;;;5059534;28;20479;-72
2022/12/16 03:37:06;;;;;;;18.15;10.13;;;;;;;;;;5047451;28;20024;-72
2022/12/16 03:39:37;;;;;;;20.13;10.88;;;;;;;;;;5065192;28;20098;-72
2022/12/16 03:42:02;;;;;;;19.05;10.57;;;;;;;;;;5063084;28;20277;-72
2022/12/16 03:44:28;;;;;;;18.60;9.60;;;;;;;;;;5045316;28;20567;-72
2022/12/16 03:46:53;;;;;;;19.02;10.15;;;;;;;;;;5062629;28;20028;-72
2022/12/16 03:49:20;;;;;;;19.65;9.52;;;;;;;;;;5066026;28;20023;-72
2022/12/16 03:51:45;;;;;;;18.77;9.52;;;;;;;;;;5061888;28;20060;-72
2022/12/16 03:54:10;;;;;;;16.87;9.20;;;;;;;;;;5065780;28;20097;-71
2022/12/16 03:56:36;;;;;;;16.20;9.10;;;;;;;;;;5042895;28;20274;-72
2022/12/16 03:59:01;;;;;;;16.35;9.25;;;;;;;;;;5047048;28;20297;-72
2022/12/16 04:01:26;;;;;;;16.40;9.07;;;;;;;;;;5063800;28;20405;-72
2022/12/16 04:03:51;;;;;;;18.20;9.17;;;;;;;;;;5063829;28;20020;-72
2022/12/16 04:06:18;;;;;;;15.70;8.27;;;;;;;;;;5050511;28;20054;-74
2022/12/16 04:08:45;;;;;;;16.37;8.77;;;;;;;;;;5047910;28;20029;-71
2022/12/16 04:25:12;;;;;;;14.55;7.88;;;;;;;;;;4968883;28;20039;-72
2022/12/16 04:27:37;;;;;;;16.98;8.20;;;;;;;;;;4963656;28;20054;-72
2022/12/16 04:30:18;;;;;;;14.80;8.10;;;;;;;;;;4964016;28;20030;-72
